createdAt,value
2022-10-09T00:01:31.135Z,95.59
2022-10-09T00:04:00.507Z,95.67
2022-10-09T00:06:31.953Z,95.68
2022-10-09T00:09:03.528Z,95.69
2022-10-09T00:11:34.671Z,95.73
2022-10-09T00:14:03.044Z,95.77
2022-10-09T00:16:33.794Z,95.84
2022-10-09T00:19:01.997Z,95.87
2022-10-09T00:21:31.629Z,95.85
2022-10-09T00:24:02.958Z,95.84
2022-10-09T00:26:33.501Z,95.87
2022-10-09T00:29:02.187Z,95.96
2022-10-09T00:31:31.298Z,96.12
2022-10-09T00:33:59.943Z,96.05
2022-10-09T00:36:30.311Z,96.00
2022-10-09T00:38:58.678Z,95.91
2022-10-09T00:41:30.571Z,95.95
2022-10-09T00:44:02.501Z,95.98
2022-10-09T00:46:38.216Z,95.98
2022-10-09T00:49:16.621Z,96.05
2022-10-09T00:51:48.395Z,96.07
2022-10-09T00:54:20.939Z,96.02
2022-10-09T00:56:50.314Z,95.94
2022-10-09T00:59:19.192Z,95.89
2022-10-09T01:01:48.887Z,95.92
2022-10-09T01:04:17.131Z,95.94
2022-10-09T01:06:55.964Z,95.88
2022-10-09T01:09:26.565Z,96.04
2022-10-09T01:12:00.977Z,96.00
2022-10-09T01:14:30.846Z,96.00
2022-10-09T01:17:04.056Z,96.04
2022-10-09T01:19:46.141Z,96.14
2022-10-09T01:22:26.572Z,96.07
2022-10-09T01:24:57.958Z,96.02
2022-10-09T01:27:29.101Z,95.98
2022-10-09T01:30:01.321Z,96.11
2022-10-09T01:32:32.344Z,96.11
2022-10-09T01:35:00.729Z,96.19
2022-10-09T01:37:30.398Z,96.23
2022-10-09T01:39:59.892Z,96.31
2022-10-09T01:42:30.452Z,96.39
2022-10-09T01:44:58.543Z,96.45
2022-10-09T01:47:27.084Z,96.44
2022-10-09T01:49:59.969Z,96.34
2022-10-09T01:52:37.156Z,96.35
2022-10-09T01:55:17.520Z,96.27
2022-10-09T01:57:52.057Z,96.34
2022-10-09T02:00:21.226Z,96.41
2022-10-09T02:02:51.215Z,96.40
2022-10-09T02:05:29.155Z,96.37
2022-10-09T02:07:58.207Z,96.33
2022-10-09T02:10:29.405Z,96.27
2022-10-09T02:13:00.515Z,96.21
2022-10-09T02:15:32.732Z,96.20
2022-10-09T02:18:06.048Z,96.26
2022-10-09T02:20:37.673Z,96.33
2022-10-09T02:23:07.860Z,96.32
2022-10-09T02:25:36.394Z,96.36
2022-10-09T02:28:06.761Z,96.29
2022-10-09T02:30:39.919Z,96.23
2022-10-09T02:33:09.432Z,96.22
2022-10-09T02:35:39.335Z,96.25
2022-10-09T02:38:08.839Z,96.18
2022-10-09T02:40:36.877Z,96.24
2022-10-09T02:43:06.431Z,96.26
2022-10-09T02:45:34.318Z,96.33
2022-10-09T02:48:02.473Z,96.39
2022-10-09T02:50:30.876Z,96.39
2022-10-09T02:52:59.003Z,96.42
2022-10-09T02:55:27.649Z,96.48
2022-10-09T02:57:56.085Z,96.45
2022-10-09T03:00:25.679Z,96.33
2022-10-09T03:02:54.044Z,96.39
2022-10-09T03:05:22.452Z,96.35
2022-10-09T03:07:53.163Z,96.31
2022-10-09T03:10:21.897Z,96.41
2022-10-09T03:12:50.456Z,96.56
2022-10-09T03:15:19.433Z,96.45
2022-10-09T03:17:48.871Z,96.45
2022-10-09T03:20:18.352Z,96.44
2022-10-09T03:22:46.674Z,96.49
2022-10-09T03:25:15.224Z,96.44
2022-10-09T03:27:43.166Z,96.52
2022-10-09T03:30:11.987Z,96.47
2022-10-09T03:35:33.605Z,96.46
2022-10-09T03:38:02.407Z,96.46
2022-10-09T03:40:30.428Z,96.36
2022-10-09T03:42:58.946Z,96.24
2022-10-09T03:45:27.218Z,96.22
2022-10-09T03:47:55.157Z,96.14
2022-10-09T03:50:23.449Z,96.15
2022-10-09T03:52:53.369Z,96.31
2022-10-09T03:55:23.782Z,96.36
2022-10-09T03:57:51.915Z,96.41
2022-10-09T04:00:23.573Z,96.47
2022-10-09T04:02:52.555Z,96.57
2022-10-09T04:05:21.660Z,96.72
2022-10-09T04:07:50.653Z,96.77
2022-10-09T04:10:22.886Z,96.82
2022-10-09T04:12:51.626Z,96.84
2022-10-09T04:15:19.786Z,96.76
2022-10-09T04:17:48.823Z,96.80
2022-10-09T04:20:17.115Z,96.78
2022-10-09T04:22:45.117Z,96.83
2022-10-09T04:25:13.218Z,96.80
2022-10-09T04:27:42.756Z,96.72
2022-10-09T04:30:13.162Z,96.73
2022-10-09T04:32:41.290Z,96.71
2022-10-09T04:35:10.039Z,96.69
2022-10-09T04:37:38.235Z,96.89
2022-10-09T04:40:06.833Z,97.00
2022-10-09T04:42:34.912Z,97.11
2022-10-09T04:45:04.856Z,97.06
2022-10-09T04:47:33.338Z,97.03
2022-10-09T04:50:01.671Z,97.04
2022-10-09T04:52:29.682Z,97.04
2022-10-09T04:54:58.019Z,97.01
2022-10-09T04:57:26.162Z,97.00
2022-10-09T04:59:54.228Z,96.99
2022-10-09T05:02:23.682Z,97.03
2022-10-09T05:04:52.434Z,97.13
2022-10-09T05:07:20.601Z,97.14
2022-10-09T05:09:48.601Z,97.22
2022-10-09T05:12:16.861Z,97.29
2022-10-09T05:14:44.879Z,97.30
2022-10-09T05:17:15.001Z,97.27
2022-10-09T05:19:44.723Z,97.34
2022-10-09T05:22:12.958Z,97.39
2022-10-09T05:24:41.781Z,97.40
2022-10-09T05:27:09.793Z,97.42
2022-10-09T05:29:37.758Z,97.50
2022-10-09T05:32:05.921Z,97.56
2022-10-09T05:34:34.952Z,97.69
2022-10-09T05:37:04.709Z,97.66
2022-10-09T05:39:36.228Z,97.71
2022-10-09T05:42:05.263Z,97.63
2022-10-09T05:44:35.408Z,97.65
2022-10-09T05:47:03.414Z,97.71
2022-10-09T05:49:34.306Z,97.76
2022-10-09T05:52:05.595Z,97.80
2022-10-09T05:54:34.441Z,97.86
2022-10-09T05:57:04.895Z,97.95
2022-10-09T05:59:35.881Z,98.01
2022-10-09T06:02:04.902Z,98.06
2022-10-09T06:04:33.047Z,98.17
2022-10-09T06:07:00.964Z,98.30
2022-10-09T06:09:30.498Z,98.37
2022-10-09T06:11:58.528Z,98.39
2022-10-09T06:14:26.713Z,98.42
2022-10-09T06:16:54.758Z,98.39
2022-10-09T06:19:23.356Z,98.36
2022-10-09T06:21:51.969Z,98.24
2022-10-09T06:24:25.834Z,98.18
2022-10-09T06:27:02.937Z,98.08
2022-10-09T06:29:31.073Z,97.91
2022-10-09T06:32:02.326Z,97.77
2022-10-09T06:37:23.377Z,97.32
2022-10-09T06:39:51.754Z,97.16
2022-10-09T06:42:21.953Z,96.77
2022-10-09T06:44:50.165Z,96.78
2022-10-09T06:47:19.417Z,96.52
2022-10-09T06:49:47.413Z,96.14
2022-10-09T06:52:15.399Z,95.44
2022-10-09T06:54:43.399Z,94.85
2022-10-09T06:57:11.559Z,94.28
2022-10-09T06:59:42.732Z,93.56
2022-10-09T07:02:10.940Z,92.58
2022-10-09T07:04:38.931Z,90.88
2022-10-09T07:07:07.378Z,90.33
2022-10-09T07:09:37.210Z,88.48
2022-10-09T07:12:06.556Z,86.71
2022-10-09T07:14:36.921Z,83.96
2022-10-09T07:17:06.964Z,81.89
2022-10-09T07:19:35.454Z,78.64
2022-10-09T07:22:04.313Z,76.68
2022-10-09T07:24:33.722Z,75.96
2022-10-09T07:27:02.159Z,74.74
2022-10-09T07:29:30.356Z,74.61
2022-10-09T07:31:58.346Z,74.19
2022-10-09T07:34:29.303Z,73.12
2022-10-09T07:36:57.404Z,73.12
2022-10-09T07:39:25.752Z,72.95
2022-10-09T07:41:53.941Z,72.62
2022-10-09T07:44:22.606Z,71.46
2022-10-09T07:46:51.425Z,70.93
2022-10-09T07:49:19.746Z,69.83
2022-10-09T07:51:49.067Z,70.10
2022-10-09T07:54:17.712Z,69.61
2022-10-09T07:56:45.839Z,68.98
2022-10-09T07:59:16.263Z,69.05
2022-10-09T08:01:45.412Z,67.97
2022-10-09T08:04:14.158Z,67.34
2022-10-09T08:06:42.104Z,66.16
2022-10-09T08:09:11.555Z,66.78
2022-10-09T08:11:41.017Z,65.21
2022-10-09T08:14:14.217Z,66.35
2022-10-09T08:16:46.315Z,65.91
2022-10-09T08:19:14.496Z,65.04
2022-10-09T08:21:42.819Z,64.17
2022-10-09T08:24:13.122Z,64.12
2022-10-09T08:26:42.566Z,63.24
2022-10-09T08:29:16.095Z,62.76
2022-10-09T08:31:44.676Z,62.53
2022-10-09T08:34:13.323Z,62.73
2022-10-09T08:36:42.377Z,61.91
2022-10-09T08:39:11.747Z,61.75
2022-10-09T08:41:43.643Z,62.02
2022-10-09T08:44:16.087Z,62.07
2022-10-09T08:46:52.814Z,60.65
2022-10-09T08:49:26.519Z,62.26
2022-10-09T08:51:55.617Z,60.76
2022-10-09T08:54:32.915Z,60.12
2022-10-09T08:57:03.735Z,60.93
2022-10-09T08:59:32.249Z,59.72
2022-10-09T09:02:05.921Z,59.20
2022-10-09T09:04:46.044Z,58.26
2022-10-09T09:07:22.603Z,58.77
2022-10-09T09:09:55.432Z,57.66
2022-10-09T09:12:28.894Z,57.81
2022-10-09T09:15:04.997Z,57.89
2022-10-09T09:17:38.967Z,57.79
2022-10-09T09:20:14.078Z,57.41
2022-10-09T09:22:46.147Z,57.44
2022-10-09T09:25:24.068Z,56.92
2022-10-09T09:27:53.456Z,57.64
2022-10-09T09:30:30.716Z,57.91
2022-10-09T09:33:05.034Z,56.09
2022-10-09T09:35:37.338Z,58.80
2022-10-09T09:38:05.188Z,58.99
2022-10-09T09:40:37.197Z,57.76
2022-10-09T09:43:15.203Z,56.12
2022-10-09T09:45:44.150Z,57.83
2022-10-09T09:48:14.787Z,58.88
2022-10-09T09:50:50.394Z,57.07
2022-10-09T09:53:28.218Z,57.60
2022-10-09T09:55:57.934Z,57.33
2022-10-09T09:58:33.532Z,57.79
2022-10-09T10:01:03.311Z,61.03
2022-10-09T10:03:31.927Z,59.65
2022-10-09T10:06:00.571Z,59.86
2022-10-09T10:08:30.238Z,59.34
2022-10-09T10:11:02.939Z,59.05
2022-10-09T10:13:37.154Z,57.52
2022-10-09T10:16:07.439Z,57.88
2022-10-09T10:18:40.165Z,57.93
2022-10-09T10:21:11.638Z,58.26
2022-10-09T10:23:42.215Z,57.78
2022-10-09T10:26:20.909Z,56.85
2022-10-09T10:28:51.316Z,57.04
2022-10-09T10:31:32.202Z,56.61
2022-10-09T10:34:00.880Z,55.89
2022-10-09T10:36:29.877Z,55.99
2022-10-09T10:39:03.132Z,55.62
2022-10-09T10:41:37.851Z,55.03
2022-10-09T10:44:10.745Z,52.77
2022-10-09T10:46:41.014Z,54.90
2022-10-09T10:49:10.728Z,55.14
2022-10-09T10:51:46.421Z,54.92
2022-10-09T10:54:31.735Z,53.68
2022-10-09T10:57:09.197Z,53.03
2022-10-09T10:59:41.093Z,52.96
2022-10-09T11:02:41.003Z,52.56
2022-10-09T11:05:30.448Z,55.15
2022-10-09T11:08:09.885Z,54.84
2022-10-09T11:10:42.538Z,55.87
2022-10-09T11:13:16.414Z,55.22
2022-10-09T11:15:53.266Z,54.37
2022-10-09T11:18:30.245Z,55.72
2022-10-09T11:21:05.011Z,55.25
2022-10-09T11:23:52.473Z,56.53
2022-10-09T11:26:27.899Z,55.76
2022-10-09T11:29:02.882Z,55.29
2022-10-09T11:31:33.928Z,54.15
2022-10-09T11:34:06.322Z,55.23
2022-10-09T11:36:34.893Z,55.78
2022-10-09T11:39:05.367Z,54.76
2022-10-09T11:41:34.102Z,54.39
2022-10-09T11:44:14.053Z,54.50
2022-10-09T11:46:46.252Z,54.83
2022-10-09T11:49:21.825Z,54.22
2022-10-09T11:51:57.367Z,53.17
2022-10-09T11:54:27.588Z,52.66
2022-10-09T11:57:05.817Z,53.46
2022-10-09T11:59:37.863Z,53.74
2022-10-09T12:02:20.849Z,54.03
2022-10-09T12:04:56.265Z,54.47
2022-10-09T12:07:33.895Z,54.64
2022-10-09T12:10:06.378Z,53.62
2022-10-09T12:12:36.028Z,53.04
2022-10-09T12:15:30.404Z,54.47
2022-10-09T12:18:01.401Z,55.67
2022-10-09T12:20:29.740Z,54.39
2022-10-09T12:23:25.172Z,55.56
2022-10-09T12:25:50.046Z,56.30
2022-10-09T12:28:23.348Z,56.25
2022-10-09T12:30:52.973Z,57.62
2022-10-09T12:33:25.680Z,58.03
2022-10-09T12:36:03.164Z,56.89
2022-10-09T12:38:32.946Z,55.45
2022-10-09T12:41:06.661Z,56.53
2022-10-09T12:43:37.437Z,57.23
2022-10-09T12:46:07.306Z,55.57
2022-10-09T12:48:38.786Z,56.37
2022-10-09T12:51:16.968Z,56.38
2022-10-09T12:53:52.491Z,55.68
2022-10-09T12:56:23.670Z,56.16
2022-10-09T12:58:52.421Z,56.10
2022-10-09T13:01:22.479Z,56.24
2022-10-09T13:03:55.288Z,57.46
2022-10-09T13:06:26.837Z,57.65
2022-10-09T13:08:57.501Z,56.58
2022-10-09T13:11:31.966Z,57.04
2022-10-09T13:14:00.303Z,57.01
2022-10-09T13:16:40.423Z,57.81
2022-10-09T13:19:22.082Z,57.82
2022-10-09T13:22:01.891Z,57.55
2022-10-09T13:24:30.739Z,58.28
2022-10-09T13:27:00.138Z,58.87
2022-10-09T13:29:29.487Z,59.48
2022-10-09T13:31:59.122Z,58.69
2022-10-09T13:34:37.202Z,59.51
2022-10-09T13:37:05.959Z,58.24
2022-10-09T13:39:36.821Z,59.01
2022-10-09T13:42:05.709Z,58.21
2022-10-09T13:44:33.704Z,57.69
2022-10-09T13:47:04.072Z,58.77
2022-10-09T13:49:32.136Z,59.15
2022-10-09T13:52:00.102Z,58.93
2022-10-09T13:54:28.235Z,59.47
2022-10-09T13:56:56.200Z,59.86
2022-10-09T13:59:25.982Z,59.73
2022-10-09T14:01:54.311Z,59.29
2022-10-09T14:04:24.746Z,58.91
2022-10-09T14:06:53.062Z,58.76
2022-10-09T14:09:21.068Z,58.59
2022-10-09T14:11:49.543Z,59.10
2022-10-09T14:14:18.573Z,59.08
2022-10-09T14:16:46.739Z,59.72
2022-10-09T14:19:16.676Z,60.22
2022-10-09T14:21:47.767Z,60.49
2022-10-09T14:24:15.814Z,59.86
2022-10-09T14:26:47.327Z,60.01
2022-10-09T14:29:19.335Z,59.58
2022-10-09T14:31:47.375Z,59.70
2022-10-09T14:34:16.716Z,59.34
2022-10-09T14:36:46.049Z,59.90
2022-10-09T14:39:14.299Z,59.77
2022-10-09T14:41:42.544Z,60.31
2022-10-09T14:44:11.060Z,60.86
2022-10-09T14:46:39.372Z,60.59
2022-10-09T14:49:11.126Z,62.00
2022-10-09T14:51:40.742Z,60.82
2022-10-09T14:54:12.459Z,60.13
2022-10-09T14:56:41.275Z,61.68
2022-10-09T14:59:09.854Z,60.74
2022-10-09T15:01:38.191Z,60.72
2022-10-09T15:04:08.135Z,61.94
2022-10-09T15:06:39.292Z,61.63
2022-10-09T15:09:12.191Z,61.34
2022-10-09T15:11:40.192Z,62.24
2022-10-09T15:14:08.709Z,61.79
2022-10-09T15:16:37.535Z,61.42
2022-10-09T15:19:09.135Z,61.77
2022-10-09T15:21:39.221Z,62.27
2022-10-09T15:24:07.690Z,62.29
2022-10-09T15:26:38.889Z,62.88
2022-10-09T15:29:10.259Z,65.97
2022-10-09T15:31:40.024Z,65.49
2022-10-09T15:34:09.755Z,65.37
2022-10-09T15:36:42.911Z,65.04
2022-10-09T15:39:11.430Z,64.04
2022-10-09T15:41:45.470Z,64.04
2022-10-09T15:44:16.493Z,63.67
2022-10-09T15:46:46.253Z,64.52
2022-10-09T15:49:14.928Z,64.22
2022-10-09T15:51:43.062Z,64.31
2022-10-09T15:54:13.160Z,62.91
2022-10-09T15:56:45.714Z,64.50
2022-10-09T15:59:14.593Z,64.95
2022-10-09T16:04:38.300Z,63.85
2022-10-09T16:07:06.670Z,64.34
2022-10-09T16:09:35.350Z,64.67
2022-10-09T16:12:05.202Z,64.40
2022-10-09T16:14:33.793Z,65.31
2022-10-09T16:17:08.991Z,65.70
2022-10-09T16:19:45.886Z,65.24
2022-10-09T16:22:13.931Z,66.06
2022-10-09T16:24:49.860Z,66.16
2022-10-09T16:27:19.384Z,67.23
2022-10-09T16:29:48.201Z,67.22
2022-10-09T16:32:18.106Z,68.21
2022-10-09T16:34:50.539Z,68.37
2022-10-09T16:37:18.968Z,69.01
2022-10-09T16:39:49.665Z,69.64
2022-10-09T16:42:19.048Z,70.14
2022-10-09T16:44:49.003Z,70.66
2022-10-09T16:47:18.616Z,70.98
2022-10-09T16:49:49.925Z,71.52
2022-10-09T16:52:19.588Z,72.00
2022-10-09T16:54:55.928Z,72.17
2022-10-09T16:57:28.310Z,72.37
2022-10-09T16:59:57.139Z,72.66
2022-10-09T17:02:25.690Z,73.11
2022-10-09T17:04:53.668Z,73.47
2022-10-09T17:07:25.189Z,73.99
2022-10-09T17:09:54.039Z,74.77
2022-10-09T17:12:22.042Z,74.92
2022-10-09T17:14:51.775Z,75.39
2022-10-09T17:17:21.005Z,75.74
2022-10-09T17:22:22.355Z,76.40
2022-10-09T17:24:50.864Z,76.66
2022-10-09T17:27:23.145Z,76.83
2022-10-09T17:29:59.364Z,77.24
2022-10-09T17:32:27.952Z,77.37
2022-10-09T17:34:56.607Z,77.52
2022-10-09T17:37:24.764Z,77.69
2022-10-09T17:39:56.554Z,77.85
2022-10-09T17:42:25.179Z,78.03
2022-10-09T17:44:54.719Z,78.24
2022-10-09T17:47:23.002Z,78.34
2022-10-09T17:49:51.671Z,78.56
2022-10-09T17:52:19.717Z,78.72
2022-10-09T17:54:50.078Z,78.83
2022-10-09T17:57:18.336Z,78.91
2022-10-09T17:59:46.506Z,79.13
2022-10-09T18:02:15.882Z,79.20
2022-10-09T18:04:44.048Z,79.35
2022-10-09T18:07:12.382Z,79.59
2022-10-09T18:09:40.464Z,79.81
2022-10-09T18:12:09.202Z,79.86
2022-10-09T18:14:37.322Z,79.94
2022-10-09T18:17:06.817Z,79.97
2022-10-09T18:19:36.154Z,80.11
2022-10-09T18:22:05.752Z,80.28
2022-10-09T18:24:33.860Z,80.35
2022-10-09T18:27:03.907Z,80.49
2022-10-09T18:29:32.147Z,80.73
2022-10-09T18:32:00.175Z,80.87
2022-10-09T18:34:28.668Z,81.19
2022-10-09T18:36:58.759Z,81.12
2022-10-09T18:39:29.111Z,81.42
2022-10-09T18:41:58.558Z,81.49
2022-10-09T18:44:27.198Z,81.63
2022-10-09T18:46:58.515Z,81.57
2022-10-09T18:49:33.664Z,81.58
2022-10-09T18:52:04.226Z,81.83
2022-10-09T18:54:32.756Z,82.15
2022-10-09T18:57:01.965Z,82.33
2022-10-09T18:59:30.536Z,82.36
2022-10-09T19:01:59.031Z,82.39
2022-10-09T19:04:27.460Z,82.47
2022-10-09T19:06:57.633Z,82.59
2022-10-09T19:09:27.043Z,82.83
2022-10-09T19:11:55.089Z,82.99
2022-10-09T19:14:24.392Z,83.05
2022-10-09T19:16:52.346Z,83.25
2022-10-09T19:19:20.654Z,83.31
2022-10-09T19:21:48.671Z,83.44
2022-10-09T19:24:18.367Z,83.66
2022-10-09T19:26:47.706Z,83.58
2022-10-09T19:29:15.781Z,83.55
2022-10-09T19:31:44.114Z,83.72
2022-10-09T19:34:14.659Z,83.75
2022-10-09T19:36:45.743Z,83.74
2022-10-09T19:39:14.398Z,83.69
2022-10-09T19:41:43.212Z,83.90
2022-10-09T19:44:14.768Z,83.75
2022-10-09T19:46:44.880Z,83.84
2022-10-09T19:49:13.376Z,83.74
2022-10-09T19:51:41.668Z,83.72
2022-10-09T19:54:10.945Z,83.76
2022-10-09T19:56:39.933Z,83.70
2022-10-09T19:59:09.668Z,83.73
2022-10-09T20:01:40.979Z,83.77
2022-10-09T20:04:11.037Z,83.78
2022-10-09T20:06:40.501Z,83.86
2022-10-09T20:09:10.431Z,83.82
2022-10-09T20:11:39.326Z,83.72
2022-10-09T20:14:09.357Z,83.65
2022-10-09T20:16:37.803Z,83.81
2022-10-09T20:19:08.212Z,83.94
2022-10-09T20:21:36.725Z,84.01
2022-10-09T20:24:06.164Z,84.16
2022-10-09T20:26:34.164Z,84.21
2022-10-09T20:29:02.476Z,84.29
2022-10-09T20:31:31.212Z,84.45
2022-10-09T20:33:59.546Z,84.46
2022-10-09T20:36:31.410Z,84.56
2022-10-09T20:39:00.687Z,84.65
2022-10-09T20:41:30.549Z,84.75
2022-10-09T20:43:59.826Z,84.84
2022-10-09T20:46:31.715Z,84.97
2022-10-09T20:49:02.444Z,84.97
2022-10-09T20:51:32.123Z,85.03
2022-10-09T20:54:01.418Z,85.11
2022-10-09T20:56:31.651Z,85.06
2022-10-09T20:59:00.399Z,85.15
2022-10-09T21:01:29.184Z,85.27
2022-10-09T21:03:59.156Z,85.44
2022-10-09T21:06:27.959Z,85.59
2022-10-09T21:08:58.391Z,85.79
2022-10-09T21:11:26.475Z,85.92
2022-10-09T21:13:54.824Z,85.95
2022-10-09T21:16:25.044Z,86.06
2022-10-09T21:18:55.307Z,86.25
2022-10-09T21:21:23.985Z,86.27
2022-10-09T21:23:53.877Z,86.30
2022-10-09T21:26:23.973Z,86.34
2022-10-09T21:28:58.305Z,86.31
2022-10-09T21:31:29.109Z,86.27
2022-10-09T21:33:58.042Z,86.28
2022-10-09T21:36:32.873Z,86.31
2022-10-09T21:39:01.023Z,86.32
2022-10-09T21:41:33.029Z,86.22
2022-10-09T21:44:01.316Z,86.09
2022-10-09T21:46:29.556Z,86.19
2022-10-09T21:48:58.253Z,86.18
2022-10-09T21:51:26.446Z,86.08
2022-10-09T21:53:55.695Z,85.99
2022-10-09T21:56:31.784Z,85.97
2022-10-09T21:59:01.073Z,85.97
2022-10-09T22:01:29.052Z,85.87
2022-10-09T22:03:58.938Z,85.91
2022-10-09T22:06:27.001Z,85.94
2022-10-09T22:08:55.468Z,86.00
2022-10-09T22:11:23.718Z,86.07
2022-10-09T22:13:51.923Z,86.11
2022-10-09T22:16:21.202Z,86.22
2022-10-09T22:18:49.899Z,86.20
2022-10-09T22:21:19.524Z,86.16
2022-10-09T22:23:47.785Z,86.19
2022-10-09T22:26:18.422Z,86.23
2022-10-09T22:28:47.509Z,86.19
2022-10-09T22:31:16.747Z,86.17
2022-10-09T22:33:50.848Z,86.24
2022-10-09T22:36:20.526Z,86.32
2022-10-09T22:38:48.799Z,86.35
2022-10-09T22:41:18.135Z,86.52
2022-10-09T22:43:48.371Z,86.51
2022-10-09T22:46:18.551Z,86.44
2022-10-09T22:48:48.070Z,86.47
2022-10-09T22:51:18.759Z,86.52
2022-10-09T22:53:49.870Z,86.61
2022-10-09T22:56:19.696Z,86.70
2022-10-09T22:58:48.909Z,86.70
2022-10-09T23:01:19.994Z,86.68
2022-10-09T23:03:49.651Z,86.75
2022-10-09T23:06:20.434Z,86.81
2022-10-09T23:08:49.854Z,86.84
2022-10-09T23:11:20.162Z,86.79
2022-10-09T23:13:48.706Z,86.74
2022-10-09T23:16:17.267Z,86.73
2022-10-09T23:18:45.556Z,86.73
2022-10-09T23:21:17.094Z,86.72
2022-10-09T23:23:46.144Z,86.81
2022-10-09T23:26:15.860Z,86.86
2022-10-09T23:28:44.842Z,86.83
2022-10-09T23:31:14.631Z,86.91
2022-10-09T23:33:44.190Z,86.89
2022-10-09T23:36:15.888Z,86.93
2022-10-09T23:38:44.546Z,87.01
2022-10-09T23:41:13.786Z,86.98
2022-10-09T23:43:42.898Z,86.96
2022-10-09T23:46:13.086Z,87.17
2022-10-09T23:48:41.111Z,87.24
2022-10-09T23:51:09.751Z,87.33
2022-10-09T23:53:39.308Z,87.41
2022-10-09T23:56:15.106Z,87.55
2022-10-09T23:58:43.882Z,87.81
